Aérodrome :
LOGIN :

S'inscrire | Disclaimer

   EN    FR    IT 

 










Légende :    VFR   VFR Marginal   IFR   IFR Intensif   IFR Très Intensif
Visi : 
Plafond : 
>= 8 km
>= 3000ft
5 à 8 km
1000 à 3000 ft
1500m à 5 km
500 à 1000 ft
800 à 1500m
200 à 500 ft
< 800m
< 200 ft
Symboles :   Orages  Brouillard  Fortes neiges  Fortes précipitations  Vent > 20 kt
SIGMETs :   Divers  Orages  Givrage  Turbulence  Onde Orograph.  Cendres Volcan.






- Altitude de l'aérodrome : 508 ft
- Code IATA : HRK


UKHH - Osnova

DERNIER METAR :
  • 271130Z 22006MPS 9999 BKN017 11/07 Q0996 R25/0///81 NOSIG

METARs EXPIRÉS :
  • 271100Z 20006MPS 9999 SCT017 11/07 Q0996 R25/0///81 NOSIG
  • 271030Z 19005MPS 9999 FEW022 11/06 Q0996 R07/0///81 NOSIG
  • 271000Z 19006MPS 140V230 CAVOK 12/06 Q0996 R07/0///81 NOSIG
  • 270930Z 19004MPS 160V220 CAVOK 11/06 Q0997 R07/0///81 NOSIG
  • 270900Z 16004MPS CAVOK 09/04 Q0997 R07/0///81 NOSIG

TAF TAF UKHH
Valide du 27 à 12h jusqu'au 28 à 12h UTC


271110Z 2712/2812 21006G12MPS 6000 BKN015 TX05/2812Z TN02/2804Z
TEMPO 2712/2718 2100 -SHRA BR BKN007 BKN020CB
PROB40
TEMPO 2712/2718 23009G16MPS -TSRA BKN020CB
BECMG 2718/2720 29005MPS 2100 -RA BR OVC004
TEMPO 2720/2812 32007G13MPS 1000 SHRASN BKN003 BKN015CB



MET'MAP, la Météo Aéronautique d'un coup d'oeil ! - Copyright ORBIFLY Décembre 2007 - Disclaimer

ORBIFLY MET'MAP TEAM :

Programmation & Développement : Alexandra Zaïnal
Sur une idée originale de : Baudouin d'Aumeries
Assistance à la programmation : Marc-Olivier Méhu
Soutien technique & logistique : Manuel Goepfert

Contact : metmap@orbifly.com




SOURCES & CREDITS :

   NOAA